Time;durP1;ratioP1;P1;durP2;ratioP2;P2;SDS_P1;SDS_P2;PMS_P1;PMS_P2;Temp;Humidity;BMP_temperature;BMP_pressure;BME280_temperature;BME280_humidity;BME280_pressure;Samples;Min_cycle;Max_cycle;Signal;HPM_P1;HPM_P2
2023/05/02 00:01:27;;;;;;;24.67;17.15;;;;;;;14.68;59.12;101930.69;5059093;28;20064;-63
2023/05/02 00:03:56;;;;;;;27.50;18.40;;;;;;;14.67;59.45;101921.75;5053612;28;20117;-63
2023/05/02 00:06:25;;;;;;;25.77;17.73;;;;;;;14.67;59.55;101926.34;5059586;28;20044;-63
2023/05/02 00:08:53;;;;;;;26.17;17.65;;;;;;;14.67;59.26;101931.75;5056132;28;20045;-62
2023/05/02 00:11:21;;;;;;;25.83;17.73;;;;;;;14.67;59.41;101935.28;5051933;28;20037;-63
2023/05/02 00:13:49;;;;;;;23.85;16.65;;;;;;;14.66;59.41;101941.75;5062496;28;20458;-63
2023/05/02 00:16:17;;;;;;;25.95;16.92;;;;;;;14.65;59.61;101950.91;5057549;28;20048;-62
2023/05/02 00:18:45;;;;;;;26.48;16.70;;;;;;;14.64;59.64;101950.06;5050669;28;20045;-64
2023/05/02 00:21:14;;;;;;;26.92;16.40;;;;;;;14.62;59.84;101957.59;5047709;28;20049;-62
2023/05/02 00:23:42;;;;;;;25.83;16.50;;;;;;;14.61;59.50;101960.50;5057258;28;20049;-63
2023/05/02 00:26:10;;;;;;;27.73;16.95;;;;;;;14.58;59.96;101958.25;5057187;28;20075;-63
2023/05/02 00:28:39;;;;;;;26.27;15.80;;;;;;;14.57;59.92;101962.84;5048681;28;20045;-63
2023/05/02 00:31:07;;;;;;;24.15;14.60;;;;;;;14.56;59.81;101965.75;5054205;28;20045;-62
2023/05/02 00:33:34;;;;;;;22.83;15.23;;;;;;;14.54;59.83;101967.84;5047404;28;20060;-63
2023/05/02 00:36:02;;;;;;;22.17;15.70;;;;;;;14.54;59.88;101970.56;5058482;28;20057;-62
2023/05/02 00:38:31;;;;;;;23.10;15.30;;;;;;;14.53;59.62;101967.03;5057649;28;20112;-63
2023/05/02 00:40:59;;;;;;;23.65;15.50;;;;;;;14.52;59.70;101965.38;5058870;28;20060;-63
2023/05/02 00:43:30;;;;;;;25.95;14.75;;;;;;;14.49;59.70;101975.81;5052316;28;20044;-62
2023/05/02 00:45:58;;;;;;;23.48;14.30;;;;;;;14.46;59.93;101968.97;5052790;28;20076;-61
2023/05/02 00:48:26;;;;;;;21.38;14.38;;;;;;;14.45;60.26;101975.41;5056068;28;20045;-63
2023/05/02 00:50:56;;;;;;;23.35;14.60;;;;;;;14.41;59.99;101967.94;5059242;28;20063;-63
2023/05/02 00:53:23;;;;;;;20.45;13.48;;;;;;;14.42;59.99;101969.63;5058347;28;20080;-61
2023/05/02 00:55:53;;;;;;;23.08;15.18;;;;;;;14.41;59.86;101970.63;5057336;28;20093;-62
2023/05/02 00:58:20;;;;;;;20.92;13.15;;;;;;;14.39;59.82;101978.97;5056312;28;20072;-63
2023/05/02 01:01:03;;;;;;;20.17;12.85;;;;;;;14.37;59.74;101977.53;5057043;28;20146;-63
2023/05/02 01:03:51;;;;;;;22.02;13.40;;;;;;;14.34;60.25;101971.50;5042985;28;20076;-62
2023/05/02 01:06:39;;;;;;;19.70;12.75;;;;;;;14.32;59.93;101981.72;5055514;28;20044;-62
2023/05/02 01:09:26;;;;;;;22.67;12.32;;;;;;;14.29;60.18;101982.16;5045421;28;20057;-63
2023/05/02 01:12:03;;;;;;;19.27;12.52;;;;;;;14.27;60.17;101967.19;5054578;28;20477;-62
2023/05/02 01:14:34;;;;;;;17.98;12.05;;;;;;;14.27;60.16;101984.25;5057330;28;20044;-62
2023/05/02 01:17:07;;;;;;;18.13;11.60;;;;;;;14.22;59.99;101981.38;5058023;28;20048;-63
2023/05/02 01:19:36;;;;;;;21.52;11.10;;;;;;;14.19;60.09;101973.69;5048950;28;20639;-62
2023/05/02 01:22:08;;;;;;;16.02;11.45;;;;;;;14.18;60.13;101974.75;5052359;28;20049;-62
2023/05/02 01:24:42;;;;;;;20.00;10.75;;;;;;;14.19;60.02;101978.28;5052464;28;20049;-64
2023/05/02 01:27:19;;;;;;;14.60;10.75;;;;;;;14.20;59.75;101971.81;5056017;28;20578;-62
2023/05/02 01:29:51;;;;;;;14.93;10.15;;;;;;;14.20;59.60;101980.75;5054164;28;20045;-62
2023/05/02 01:32:22;;;;;;;15.25;10.27;;;;;;;14.16;60.06;101984.13;5056735;28;20148;-62
2023/05/02 01:34:53;;;;;;;15.63;10.23;;;;;;;14.13;59.78;101993.50;5051689;28;20056;-62
2023/05/02 01:37:23;;;;;;;14.70;9.70;;;;;;;14.10;59.61;101977.72;5055197;28;20164;-63
2023/05/02 01:39:54;;;;;;;15.60;8.43;;;;;;;14.11;59.64;101979.38;5059563;28;20064;-62
2023/05/02 01:42:23;;;;;;;13.70;8.13;;;;;;;14.09;59.75;101978.75;5051410;28;20135;-62
2023/05/02 01:44:55;;;;;;;13.80;8.38;;;;;;;14.10;59.29;101985.81;5053725;28;20306;-62
2023/05/02 01:47:24;;;;;;;14.20;7.97;;;;;;;14.09;59.54;101983.34;5050960;28;20106;-62
2023/05/02 01:49:52;;;;;;;14.85;8.00;;;;;;;14.08;59.39;101982.50;5053279;28;20135;-63
2023/05/02 01:52:23;;;;;;;11.82;7.22;;;;;;;14.10;59.40;101993.09;5042322;28;20080;-62
2023/05/02 01:54:53;;;;;;;11.45;7.30;;;;;;;14.11;58.94;101992.06;5058666;28;20128;-62
2023/05/02 01:57:21;;;;;;;12.90;7.90;;;;;;;14.11;59.39;101997.47;5053927;28;20068;-62
2023/05/02 01:59:52;;;;;;;10.50;6.97;;;;;;;14.10;58.98;101995.81;5060866;28;20095;-62
2023/05/02 02:02:22;;;;;;;11.38;6.63;;;;;;;14.11;58.73;101995.59;5051312;28;20494;-62
2023/05/02 02:04:53;;;;;;;9.20;6.55;;;;;;;14.13;58.99;101998.06;5050169;28;20057;-63
2023/05/02 02:07:21;;;;;;;9.60;6.25;;;;;;;14.11;59.06;102005.56;5055230;28;20502;-61
2023/05/02 02:09:49;;;;;;;9.88;5.78;;;;;;;14.06;58.68;102003.50;5056550;28;20045;-62
2023/05/02 02:12:24;;;;;;;8.88;5.80;;;;;;;14.09;59.14;102011.19;5053581;28;20103;-62
2023/05/02 02:14:57;;;;;;;9.43;6.03;;;;;;;14.08;58.58;102009.53;5040701;28;20635;-62
2023/05/02 02:17:29;;;;;;;9.25;6.07;;;;;;;14.09;59.01;102018.47;5055997;28;20073;-62
2023/05/02 02:20:03;;;;;;;9.77;5.28;;;;;;;14.07;58.81;102015.16;5057423;28;20045;-63
2023/05/02 02:22:35;;;;;;;11.57;7.07;;;;;;;14.06;58.84;102024.31;5052942;28;20136;-62
2023/05/02 02:25:05;;;;;;;9.95;6.03;;;;;;;14.05;58.96;102026.19;5053987;28;20501;-62
2023/05/02 02:27:33;;;;;;;10.77;7.13;;;;;;;14.02;58.97;102016.63;5047601;28;20049;-62
2023/05/02 02:30:03;;;;;;;9.75;6.80;;;;;;;14.01;59.53;102014.16;5056212;28;20076;-63
2023/05/02 02:32:31;;;;;;;12.70;6.65;;;;;;;14.01;59.48;102027.66;5050849;28;20076;-63
2023/05/02 02:34:59;;;;;;;13.70;7.50;;;;;;;13.98;59.59;102026.22;5053378;28;20048;-62
2023/05/02 02:37:32;;;;;;;10.07;6.55;;;;;;;13.95;59.24;102026.66;5057725;28;20072;-63
2023/05/02 02:40:08;;;;;;;14.35;7.90;;;;;;;13.91;59.73;102030.81;5051979;28;20060;-63
2023/05/02 02:42:43;;;;;;;13.23;7.95;;;;;;;13.89;59.85;102032.09;5051735;28;20060;-62
2023/05/02 02:45:25;;;;;;;12.88;7.35;;;;;;;13.88;60.18;102035.84;5046646;28;20076;-62
2023/05/02 02:48:02;;;;;;;11.20;7.85;;;;;;;13.87;60.21;102043.13;5056317;28;20056;-62
2023/05/02 02:50:32;;;;;;;15.45;8.68;;;;;;;13.84;60.15;102043.56;5051675;28;20053;-62
2023/05/02 02:53:02;;;;;;;12.45;7.75;;;;;;;13.80;60.27;102039.63;5055336;28;20144;-62
2023/05/02 02:55:40;;;;;;;15.10;8.02;;;;;;;13.77;60.25;102044.63;5061911;28;20064;-62
2023/05/02 02:58:20;;;;;;;13.13;8.73;;;;;;;13.74;60.36;102045.06;5056656;28;20048;-63
2023/05/02 03:00:49;;;;;;;12.00;7.82;;;;;;;13.72;60.55;102042.56;5061251;28;20144;-63
2023/05/02 03:03:20;;;;;;;11.63;7.82;;;;;;;13.72;60.87;102055.25;5064424;28;21508;-63
2023/05/02 03:05:49;;;;;;;9.77;6.95;;;;;;;13.71;60.84;102053.59;5059525;28;20414;-62
2023/05/02 03:08:16;;;;;;;15.68;8.50;;;;;;;13.64;61.09;102064.44;5061833;28;20064;-62
2023/05/02 03:10:44;;;;;;;12.75;8.30;;;;;;;13.60;61.21;102061.31;5045605;28;20136;-63
2023/05/02 03:13:12;;;;;;;14.30;8.13;;;;;;;13.50;61.44;102057.41;5055393;28;20053;-62
2023/05/02 03:16:19;;;;;;;12.68;8.25;;;;;;;13.58;61.15;102068.81;5058658;28;20088;-62
2023/05/02 03:18:47;;;;;;;13.43;7.60;;;;;;;13.58;61.09;102076.06;5055944;28;20061;-62
2023/05/02 03:21:14;;;;;;;11.07;7.65;;;;;;;13.58;61.59;102078.78;5059411;28;20068;-63
2023/05/02 03:23:42;;;;;;;14.13;8.35;;;;;;;13.57;61.52;102075.25;5060000;28;20080;-63
2023/05/02 03:26:10;;;;;;;10.65;7.00;;;;;;;13.59;61.07;102078.56;5059902;28;20096;-63
2023/05/02 03:28:38;;;;;;;11.13;6.55;;;;;;;13.59;61.24;102083.97;5061644;28;20279;-63
2023/05/02 03:31:07;;;;;;;10.43;7.18;;;;;;;13.61;61.37;102078.34;5060672;28;20112;-63
2023/05/02 03:33:35;;;;;;;10.35;7.47;;;;;;;13.63;61.35;102079.81;5051343;28;20044;-63
2023/05/02 03:36:02;;;;;;;10.68;6.43;;;;;;;13.63;61.44;102085.22;5055484;28;20051;-63
2023/05/02 03:38:31;;;;;;;18.02;7.38;;;;;;;13.65;61.33;102079.59;5059985;28;20059;-63
2023/05/02 03:40:59;;;;;;;14.93;7.68;;;;;;;13.65;60.87;102082.28;5056521;28;20045;-63
2023/05/02 03:43:26;;;;;;;11.35;6.97;;;;;;;13.63;61.67;102085.22;5051549;28;20286;-63
2023/05/02 03:45:54;;;;;;;13.18;6.72;;;;;;;13.64;61.33;102083.34;5053996;28;20052;-62
2023/05/02 03:48:23;;;;;;;10.15;6.38;;;;;;;13.62;61.50;102083.53;5056751;28;20318;-63
2023/05/02 03:50:51;;;;;;;10.95;6.20;;;;;;;13.62;61.36;102088.94;5055642;28;20068;-63
2023/05/02 03:53:19;;;;;;;12.73;6.35;;;;;;;13.63;61.34;102087.06;5052426;28;20045;-63
2023/05/02 03:55:47;;;;;;;13.15;6.55;;;;;;;13.62;61.63;102096.22;5057808;28;20063;-63
2023/05/02 03:58:15;;;;;;;11.32;6.32;;;;;;;13.61;62.02;102091.88;5055109;28;20087;-62
2023/05/02 04:00:43;;;;;;;12.10;5.60;;;;;;;13.62;61.28;102090.81;5058446;28;20135;-63
2023/05/02 04:03:11;;;;;;;13.32;6.53;;;;;;;13.62;61.52;102094.34;5060625;28;20037;-63
2023/05/02 04:05:40;;;;;;;14.50;5.85;;;;;;;13.62;61.81;102099.75;5049021;28;20369;-62
2023/05/02 04:08:08;;;;;;;10.68;5.65;;;;;;;13.61;61.90;102103.50;5060259;28;20052;-62
2023/05/02 04:10:36;;;;;;;12.52;6.45;;;;;;;13.61;61.55;102116.16;5059305;28;20071;-62
2023/05/02 04:13:04;;;;;;;13.50;6.43;;;;;;;13.58;61.65;102114.72;5054218;28;20507;-62
2023/05/02 04:15:32;;;;;;;12.15;5.70;;;;;;;13.54;61.79;102116.19;5044127;28;20046;-62
2023/05/02 04:18:00;;;;;;;13.25;5.68;;;;;;;13.54;62.08;102118.88;5057728;28;20104;-62
2023/05/02 04:20:29;;;;;;;8.85;5.30;;;;;;;13.49;62.05;102117.84;5047730;28;20174;-62
2023/05/02 04:22:58;;;;;;;13.25;5.47;;;;;;;13.48;62.09;102127.81;5054052;28;20080;-62
2023/05/02 04:25:26;;;;;;;12.82;4.95;;;;;;;13.44;62.01;102123.88;5052112;28;20120;-63
2023/05/02 04:27:54;;;;;;;11.10;4.70;;;;;;;13.39;61.96;102137.19;5049484;28;20136;-63
2023/05/02 04:30:21;;;;;;;15.02;4.68;;;;;;;13.35;61.63;102135.94;5058812;28;20064;-63
2023/05/02 04:32:49;;;;;;;13.38;4.30;;;;;;;13.32;61.99;102142.59;5057851;28;20342;-64
2023/05/02 04:35:17;;;;;;;12.70;4.22;;;;;;;13.29;61.62;102144.88;5054170;28;20087;-63
2023/05/02 04:37:45;;;;;;;13.52;4.10;;;;;;;13.28;61.31;102151.31;5059616;28;20052;-64
2023/05/02 04:40:14;;;;;;;10.75;3.92;;;;;;;13.27;61.16;102146.94;5059348;28;20155;-63
2023/05/02 04:42:42;;;;;;;10.02;3.67;;;;;;;13.26;61.03;102148.00;5058553;28;20136;-62
2023/05/02 04:45:10;;;;;;;12.02;3.35;;;;;;;13.27;61.37;102158.59;5059334;28;20053;-63
2023/05/02 04:47:38;;;;;;;9.82;2.97;;;;;;;13.26;61.06;102165.03;5055761;28;20506;-63
2023/05/02 04:50:08;;;;;;;10.07;3.30;;;;;;;13.25;60.72;102165.22;5052551;28;20067;-63
2023/05/02 04:52:35;;;;;;;10.20;3.03;;;;;;;13.27;60.59;102176.66;5057961;28;20098;-63
2023/05/02 04:55:04;;;;;;;9.23;3.58;;;;;;;13.28;60.55;102179.16;5050075;28;20052;-63
2023/05/02 04:57:33;;;;;;;12.27;2.65;;;;;;;13.26;59.72;102175.81;5059407;28;20558;-63
2023/05/02 05:00:01;;;;;;;8.57;2.25;;;;;;;13.24;59.21;102183.28;5060420;28;20055;-63
2023/05/02 05:02:29;;;;;;;8.13;2.70;;;;;;;13.26;58.63;102196.59;5055217;28;20033;-63
2023/05/02 05:04:57;;;;;;;10.75;3.33;;;;;;;13.25;58.39;102208.44;5055949;28;20131;-63
2023/05/02 05:07:25;;;;;;;10.38;2.17;;;;;;;13.26;58.50;102207.38;5053393;28;20064;-63
2023/05/02 05:09:52;;;;;;;7.40;2.10;;;;;;;13.24;57.87;102210.28;5053603;28;20051;-63
2023/05/02 05:12:20;;;;;;;8.93;2.30;;;;;;;13.25;57.57;102216.53;5048673;28;20167;-63
2023/05/02 05:14:49;;;;;;;7.72;1.77;;;;;;;13.23;57.23;102216.72;5049993;28;20077;-63
2023/05/02 05:17:17;;;;;;;7.05;1.90;;;;;;;13.19;57.05;102209.25;5059420;28;20069;-62
2023/05/02 05:19:45;;;;;;;8.05;1.83;;;;;;;13.22;56.85;102222.34;5058319;28;20052;-61
2023/05/02 05:22:13;;;;;;;6.75;1.95;;;;;;;13.19;56.48;102225.44;5057165;28;20053;-63
2023/05/02 05:24:40;;;;;;;6.30;2.13;;;;;;;13.20;56.19;102227.09;5058388;28;20045;-62
2023/05/02 05:27:08;;;;;;;5.82;1.90;;;;;;;13.21;56.36;102239.56;5057273;28;20079;-61
2023/05/02 05:29:36;;;;;;;4.65;1.40;;;;;;;13.19;55.83;102239.78;5049315;28;20042;-61
2023/05/02 05:32:05;;;;;;;6.53;1.65;;;;;;;13.19;55.94;102247.03;5053866;28;20068;-63
2023/05/02 05:34:33;;;;;;;6.32;1.55;;;;;;;13.18;55.76;102248.06;5054608;28;20052;-62
2023/05/02 05:37:01;;;;;;;6.43;1.83;;;;;;;13.16;55.56;102250.97;5057639;28;20450;-63
2023/05/02 05:39:29;;;;;;;6.40;1.45;;;;;;;13.16;55.70;102256.38;5056479;28;20053;-63
2023/05/02 05:41:57;;;;;;;5.28;1.90;;;;;;;13.16;55.70;102250.97;5060090;28;20068;-64
2023/05/02 05:44:25;;;;;;;5.40;1.42;;;;;;;13.17;55.62;102258.03;5051978;28;20064;-62
2023/05/02 05:46:53;;;;;;;5.07;2.40;;;;;;;13.21;55.53;102258.47;5054781;28;20076;-62
2023/05/02 05:49:23;;;;;;;3.97;1.63;;;;;;;13.22;55.90;102252.88;5058496;28;20375;-61
2023/05/02 05:51:51;;;;;;;8.55;1.60;;;;;;;13.21;54.93;102263.88;5046542;28;20468;-60
2023/05/02 05:54:18;;;;;;;6.72;1.52;;;;;;;13.20;54.91;102264.91;5057957;28;20049;-62
2023/05/02 05:56:46;;;;;;;7.55;1.63;;;;;;;13.20;55.48;102264.91;5052526;28;20113;-62
2023/05/02 05:59:14;;;;;;;9.52;2.05;;;;;;;13.16;54.96;102272.56;5058885;28;20437;-62
2023/05/02 06:01:42;;;;;;;11.52;2.03;;;;;;;13.20;54.75;102270.31;5060050;28;20051;-62
2023/05/02 06:04:10;;;;;;;7.93;1.52;;;;;;;13.24;54.93;102276.97;5060884;28;20045;-63
2023/05/02 06:06:39;;;;;;;5.78;1.50;;;;;;;13.26;54.94;102281.13;5050135;28;20041;-63
2023/05/02 06:09:07;;;;;;;6.63;1.52;;;;;;;13.27;54.79;102282.78;5055770;28;20045;-63
2023/05/02 06:11:36;;;;;;;8.93;1.63;;;;;;;13.30;54.53;102286.94;5048560;28;20079;-62
2023/05/02 06:14:04;;;;;;;7.65;1.60;;;;;;;13.33;54.80;102283.81;5059778;28;20072;-62
2023/05/02 06:16:32;;;;;;;8.52;1.80;;;;;;;13.35;55.02;102282.59;5058913;28;20055;-62
2023/05/02 06:19:00;;;;;;;3.05;1.20;;;;;;;13.38;55.10;102294.84;5058165;28;20081;-62
2023/05/02 06:21:28;;;;;;;5.90;1.48;;;;;;;13.41;54.55;102297.13;5053969;28;20103;-61
2023/05/02 06:23:57;;;;;;;5.20;1.35;;;;;;;13.44;54.76;102299.44;5063666;28;20113;-62
2023/05/02 06:26:24;;;;;;;4.38;1.10;;;;;;;13.46;54.45;102301.91;5063585;28;20182;-62
2023/05/02 06:28:54;;;;;;;7.88;1.60;;;;;;;13.40;54.50;102292.78;5063403;28;20072;-62
2023/05/02 06:31:22;;;;;;;4.20;1.58;;;;;;;13.47;54.24;102304.41;5062063;28;20572;-62
2023/05/02 06:33:51;;;;;;;4.38;1.52;;;;;;;13.47;53.73;102314.38;5063968;28;20053;-62
2023/05/02 06:36:18;;;;;;;7.03;1.30;;;;;;;13.42;53.48;102312.31;5063558;28;20136;-62
2023/05/02 06:38:46;;;;;;;4.28;1.45;;;;;;;13.44;53.15;102322.91;5063214;28;20128;-63
2023/05/02 06:41:16;;;;;;;9.48;1.95;;;;;;;13.43;53.23;102326.63;5062283;28;20049;-62
2023/05/02 06:43:45;;;;;;;6.90;1.48;;;;;;;13.43;53.23;102332.03;5063246;28;20492;-62
2023/05/02 06:46:12;;;;;;;2.92;1.50;;;;;;;13.41;53.22;102334.94;5059812;28;20064;-61
2023/05/02 06:48:40;;;;;;;8.65;1.75;;;;;;;13.38;52.57;102337.22;5049893;28;20098;-62
2023/05/02 06:51:08;;;;;;;4.18;1.80;;;;;;;13.34;53.08;102337.63;5050904;28;20049;-62
2023/05/02 06:53:36;;;;;;;6.93;1.75;;;;;;;13.33;52.84;102337.84;5048613;28;20045;-62
2023/05/02 06:56:04;;;;;;;4.18;1.45;;;;;;;13.32;52.74;102349.66;5062610;28;20063;-62
2023/05/02 06:58:33;;;;;;;5.45;2.00;;;;;;;13.32;52.92;102345.09;5056051;28;20056;-62
2023/05/02 07:01:01;;;;;;;4.32;1.73;;;;;;;13.32;53.44;102358.59;5062251;28;20045;-62
2023/05/02 07:03:29;;;;;;;2.90;1.30;;;;;;;13.25;53.14;102348.81;5043302;28;20049;-62
2023/05/02 07:05:57;;;;;;;5.60;1.88;;;;;;;13.29;53.01;102359.00;5056970;28;20486;-62
2023/05/02 07:08:25;;;;;;;7.93;2.25;;;;;;;13.26;53.02;102364.81;5053888;28;20049;-61
2023/05/02 07:10:53;;;;;;;7.90;1.67;;;;;;;13.26;52.94;102356.72;5050599;28;20053;-62
2023/05/02 07:13:20;;;;;;;8.25;2.45;;;;;;;13.26;53.18;102369.38;5054635;28;20325;-62
2023/05/02 07:15:50;;;;;;;5.35;1.52;;;;;;;13.23;53.23;102377.88;5058736;28;20128;-62
2023/05/02 07:18:17;;;;;;;6.95;2.58;;;;;;;13.25;53.40;102383.91;5061508;28;20051;-62
2023/05/02 07:20:45;;;;;;;10.70;2.90;;;;;;;13.26;53.41;102382.88;5062788;28;20048;-61
2023/05/02 07:23:13;;;;;;;5.18;1.88;;;;;;;13.27;53.33;102381.84;5061272;28;20077;-62
2023/05/02 07:25:41;;;;;;;9.75;2.17;;;;;;;13.28;53.71;102392.44;5053993;28;20077;-62
2023/05/02 07:28:09;;;;;;;12.77;2.20;;;;;;;13.29;53.69;102394.09;5060987;28;20056;-62
2023/05/02 07:30:36;;;;;;;10.07;2.03;;;;;;;13.29;53.43;102394.09;5053825;28;20092;-62
2023/05/02 07:33:06;;;;;;;8.23;1.88;;;;;;;13.31;53.24;102399.31;5054072;28;20233;-62
2023/05/02 07:35:34;;;;;;;6.88;2.40;;;;;;;13.31;53.06;102404.72;5056850;28;20042;-62
2023/05/02 07:38:02;;;;;;;5.88;2.72;;;;;;;13.32;53.58;102404.50;5055510;28;20049;-62
2023/05/02 07:40:29;;;;;;;7.47;1.92;;;;;;;13.32;53.22;102400.97;5057549;28;20045;-62
2023/05/02 07:42:58;;;;;;;12.85;4.30;;;;;;;13.31;53.17;102413.66;5052536;28;20077;-62
2023/05/02 07:45:25;;;;;;;7.10;1.85;;;;;;;13.32;53.01;102414.47;5055807;28;20068;-62
2023/05/02 07:47:53;;;;;;;10.48;1.80;;;;;;;13.32;52.40;102411.78;5044738;28;20480;-61
2023/05/02 07:50:23;;;;;;;6.20;2.17;;;;;;;13.29;52.62;102418.41;5047391;28;20054;-62
2023/05/02 07:52:51;;;;;;;8.23;2.20;;;;;;;13.31;52.69;102420.91;5056229;28;20107;-61
2023/05/02 07:55:19;;;;;;;8.40;2.78;;;;;;;13.30;52.23;102413.84;5047624;28;20041;-61
2023/05/02 07:57:46;;;;;;;9.30;2.97;;;;;;;13.26;51.97;102407.19;5059373;28;20120;-62
2023/05/02 08:00:15;;;;;;;11.45;1.83;;;;;;;13.25;51.62;102414.44;5061279;28;20160;-62
2023/05/02 08:02:44;;;;;;;7.55;2.42;;;;;;;13.19;51.66;102414.41;5054395;28;20064;-62
2023/05/02 08:05:12;;;;;;;12.73;2.38;;;;;;;13.21;51.81;102423.97;5054676;28;20064;-62
2023/05/02 08:07:41;;;;;;;5.65;1.90;;;;;;;13.19;51.45;102417.13;5049171;28;20053;-62
2023/05/02 08:10:10;;;;;;;10.07;2.05;;;;;;;13.16;51.58;102431.84;5054049;28;20088;-62
2023/05/02 08:12:39;;;;;;;8.82;2.40;;;;;;;13.16;51.55;102423.75;5060081;28;20053;-62
2023/05/02 08:15:08;;;;;;;8.00;2.88;;;;;;;13.19;51.24;102427.91;5051718;28;20109;-61
2023/05/02 08:17:35;;;;;;;8.23;1.90;;;;;;;13.20;51.85;102424.19;5049643;28;20534;-61
2023/05/02 08:20:04;;;;;;;10.15;2.72;;;;;;;13.23;52.07;102432.72;5054230;28;20129;-62
2023/05/02 08:22:32;;;;;;;5.88;2.35;;;;;;;13.23;51.63;102432.72;5057326;28;20053;-62
2023/05/02 08:25:01;;;;;;;6.47;2.00;;;;;;;13.24;51.75;102436.25;5048294;28;20076;-62
2023/05/02 08:27:29;;;;;;;5.07;1.83;;;;;;;13.25;52.18;102446.00;5049255;28;20052;-62
2023/05/02 08:29:56;;;;;;;9.40;2.40;;;;;;;13.25;52.10;102452.25;5053914;28;20044;-62
2023/05/02 08:32:28;;;;;;;7.57;2.50;;;;;;;13.23;51.93;102454.31;5056637;28;20076;-62
2023/05/02 08:34:56;;;;;;;12.98;2.72;;;;;;;13.25;52.11;102462.22;5052346;28;20513;-61
2023/05/02 08:37:24;;;;;;;10.43;3.00;;;;;;;13.22;51.83;102462.63;5060276;28;20171;-62
2023/05/02 08:39:52;;;;;;;7.50;2.28;;;;;;;13.21;51.51;102469.88;5048117;28;20116;-61
2023/05/02 08:42:22;;;;;;;12.02;3.25;;;;;;;13.19;51.64;102471.94;5056335;28;20458;-62
2023/05/02 08:44:50;;;;;;;5.55;2.08;;;;;;;13.20;51.43;102467.38;5059222;28;20041;-62
2023/05/02 08:47:20;;;;;;;12.00;2.80;;;;;;;13.17;51.06;102474.00;5054465;28;20060;-62
2023/05/02 08:49:49;;;;;;;9.75;2.55;;;;;;;13.18;51.20;102481.06;5045770;28;20063;-62
2023/05/02 08:52:20;;;;;;;8.82;2.63;;;;;;;13.19;50.88;102484.59;5048410;28;20075;-62
2023/05/02 08:54:50;;;;;;;11.15;2.38;;;;;;;13.20;50.54;102486.28;5056842;28;20039;-62
2023/05/02 08:57:18;;;;;;;10.77;2.72;;;;;;;13.19;50.46;102488.16;5042242;28;20049;-62
2023/05/02 08:59:47;;;;;;;11.50;2.20;;;;;;;13.19;50.52;102490.84;5050813;28;20116;-62
2023/05/02 09:02:27;;;;;;;6.95;2.17;;;;;;;13.18;50.51;102491.88;5052313;28;20084;-61
2023/05/02 09:05:01;;;;;;;8.75;2.10;;;;;;;13.19;50.55;102482.75;5055459;28;20084;-61
2023/05/02 09:07:29;;;;;;;6.35;2.58;;;;;;;13.21;51.05;102493.34;5054535;28;20052;-60
2023/05/02 09:09:58;;;;;;;8.13;2.35;;;;;;;13.22;50.51;102489.63;5047717;28;20099;-62
2023/05/02 09:12:26;;;;;;;7.82;2.08;;;;;;;13.21;50.57;102499.56;5047779;28;20607;-61
2023/05/02 09:15:11;;;;;;;5.45;1.77;;;;;;;13.18;50.22;102502.69;5047612;28;20081;-61
2023/05/02 09:17:43;;;;;;;5.35;1.85;;;;;;;13.13;49.98;102501.56;5060098;28;20110;-61
2023/05/02 09:20:12;;;;;;;9.52;1.75;;;;;;;13.14;49.35;102509.47;5048495;28;20057;-62
2023/05/02 09:22:48;;;;;;;7.68;2.00;;;;;;;13.15;49.58;102510.31;5046462;28;20223;-61
2023/05/02 09:25:17;;;;;;;6.88;2.13;;;;;;;13.17;49.88;102513.66;5055505;28;20045;-61
2023/05/02 09:27:52;;;;;;;6.80;2.40;;;;;;;13.17;49.50;102514.50;5054499;28;20081;-62
2023/05/02 09:30:23;;;;;;;5.35;1.80;;;;;;;13.16;48.82;102512.84;5052196;28;20623;-61
2023/05/02 09:32:54;;;;;;;7.35;2.25;;;;;;;13.20;49.46;102515.97;5055177;28;20049;-62
2023/05/02 09:35:25;;;;;;;6.07;2.10;;;;;;;13.21;49.25;102520.34;5048726;28;20045;-62
2023/05/02 09:37:54;;;;;;;8.75;1.52;;;;;;;13.22;49.43;102517.44;5051084;28;20052;-62
2023/05/02 09:40:23;;;;;;;8.85;2.00;;;;;;;13.23;49.53;102519.13;5050236;28;20113;-62
2023/05/02 09:42:51;;;;;;;5.35;1.92;;;;;;;13.25;49.00;102529.72;5051268;28;20046;-62
2023/05/02 09:45:24;;;;;;;7.82;2.17;;;;;;;13.23;49.18;102531.78;5055524;28;20099;-62
2023/05/02 09:47:53;;;;;;;13.57;2.22;;;;;;;13.22;48.29;102530.09;5053485;28;20052;-62
2023/05/02 09:50:32;;;;;;;6.07;2.22;;;;;;;13.23;48.51;102527.22;5039506;28;20085;-63
2023/05/02 09:53:03;;;;;;;7.97;1.95;;;;;;;13.26;48.44;102528.69;5042195;28;20049;-62
2023/05/02 09:55:31;;;;;;;8.00;2.40;;;;;;;13.28;48.74;102532.03;5057314;28;20041;-63
2023/05/02 09:57:59;;;;;;;4.90;1.85;;;;;;;13.31;49.01;102531.63;5059316;28;20079;-63
2023/05/02 10:00:43;;;;;;;10.90;2.35;;;;;;;13.33;48.85;102524.16;5057537;28;20041;-62
2023/05/02 10:03:15;;;;;;;10.18;2.10;;;;;;;13.35;49.27;102531.03;5055742;28;20053;-62
2023/05/02 10:05:45;;;;;;;10.55;2.17;;;;;;;13.35;48.55;102539.13;5044385;28;20041;-61
2023/05/02 10:08:14;;;;;;;5.90;1.83;;;;;;;13.35;48.42;102532.88;5052267;28;20053;-61
2023/05/02 10:10:47;;;;;;;4.93;1.75;;;;;;;13.37;48.58;102536.22;5039476;28;20065;-61
2023/05/02 10:13:19;;;;;;;5.07;1.85;;;;;;;13.38;48.66;102540.59;5042373;28;20045;-62
2023/05/02 10:15:53;;;;;;;9.60;2.60;;;;;;;13.39;48.43;102542.25;5054106;28;20112;-63
2023/05/02 10:18:27;;;;;;;11.15;1.90;;;;;;;13.40;48.69;102538.53;5050561;28;20144;-62
2023/05/02 10:20:59;;;;;;;6.40;2.45;;;;;;;13.41;48.50;102537.50;5042761;28;20108;-62
2023/05/02 10:23:28;;;;;;;5.15;2.00;;;;;;;13.44;49.02;102547.06;5059357;28;20057;-63
2023/05/02 10:25:58;;;;;;;8.27;1.83;;;;;;;13.45;48.89;102551.44;5048610;28;20359;-62
2023/05/02 10:28:27;;;;;;;4.03;1.83;;;;;;;13.45;48.60;102543.34;5055597;28;20053;-62
2023/05/02 10:31:00;;;;;;;11.48;2.42;;;;;;;13.46;48.17;102540.44;5048569;28;20045;-63
2023/05/02 10:33:30;;;;;;;6.57;2.00;;;;;;;13.49;48.40;102539.19;5059831;28;20067;-62
2023/05/02 10:35:58;;;;;;;7.20;3.13;;;;;;;13.49;48.40;102534.63;5044505;28;20104;-62
2023/05/02 10:38:26;;;;;;;7.78;2.13;;;;;;;13.51;47.80;102537.97;5048185;28;20049;-62
2023/05/02 10:40:58;;;;;;;6.32;1.85;;;;;;;13.52;48.08;102533.41;5058090;28;20363;-62
2023/05/02 10:43:33;;;;;;;5.82;2.03;;;;;;;13.52;47.70;102536.09;5050338;28;20152;-62
2023/05/02 10:46:03;;;;;;;9.88;2.22;;;;;;;13.55;48.07;102547.34;5057287;28;20071;-62
2023/05/02 10:48:31;;;;;;;8.07;2.00;;;;;;;13.56;47.51;102540.91;5055240;28;20148;-62
2023/05/02 10:51:00;;;;;;;7.43;2.08;;;;;;;13.58;47.75;102533.44;5038862;28;20045;-62
2023/05/02 10:53:30;;;;;;;6.72;1.83;;;;;;;13.58;48.24;102538.00;5053239;28;20133;-62
2023/05/02 10:56:16;;;;;;;11.32;2.25;;;;;;;13.63;47.98;102535.53;5052513;28;20065;-62
2023/05/02 10:58:45;;;;;;;5.88;1.70;;;;;;;13.65;47.96;102539.69;5049085;28;20049;-62
2023/05/02 11:01:42;;;;;;;6.38;2.20;;;;;;;13.69;48.09;102542.84;5049608;28;20053;-62
2023/05/02 11:04:10;;;;;;;7.55;2.17;;;;;;;13.69;48.00;102542.84;4997980;28;20051;-62
2023/05/02 11:07:11;;;;;;;8.05;2.38;;;;;;;13.71;47.58;102550.75;5004703;28;20050;-62
2023/05/02 11:09:39;;;;;;;7.78;2.00;;;;;;;13.72;47.27;102560.50;5015142;28;20149;-62
2023/05/02 11:12:07;;;;;;;9.73;3.08;;;;;;;13.71;47.08;102556.16;5000926;28;20137;-63
2023/05/02 11:14:49;;;;;;;7.55;2.13;;;;;;;13.72;47.85;102564.06;5007107;28;20080;-62
2023/05/02 11:17:19;;;;;;;6.63;2.22;;;;;;;13.66;47.89;102552.19;5006431;28;20364;-62
2023/05/02 11:20:26;;;;;;;6.38;2.08;;;;;;;13.75;47.61;102557.41;5001629;28;20112;-62
2023/05/02 11:22:59;;;;;;;7.25;1.98;;;;;;;13.75;47.36;102566.34;5006646;28;20060;-62
2023/05/02 11:25:38;;;;;;;7.18;2.22;;;;;;;13.78;47.32;102570.53;5006446;28;20145;-62
2023/05/02 11:28:09;;;;;;;7.05;1.92;;;;;;;13.76;47.86;102561.78;5007200;28;20054;-62
2023/05/02 11:30:47;;;;;;;7.10;1.83;;;;;;;13.81;47.48;102562.84;5004524;28;20075;-62
2023/05/02 11:33:18;;;;;;;5.60;2.10;;;;;;;13.84;48.04;102557.03;5000318;28;20208;-62